Hauptseite
METAR-TAF:

METAR-TAF

Flughäfen :

Harare, Simbabwe

Flughafen Harare International

Breite: 17-55S, Länge: 031-08E, Höhe: 1479 m

Beobachtung

Neuester Wetterbericht von vor 1 Stunde und 7 Minuten, um 13:00 UTC
Wind 12 kt aus Nordost
Temperatur 33°C
Luftfeuchtigkeit 21%
Luftdruck 1020 hPa
Sichtweite: 8000 m
Aufgelockert bewölkt in der Höhe von 7000 ft
Aufgelockert bewölkt in der Höhe von 30000 ft

METAR: FVHA 201300Z 05012KT 8000 SCT070 SCT300 33/08 Q1020 NOSIG

Zeit: 16:07 (14:07 UTC)

Prognose

Neuester Wetterbericht von vor 16 Stunden und 7 Minuten, um 22:00 UTC
Gültige Prognose vom 20 um 00 UTC bis 21 um 06 UTC
Wind 9 kt aus Ost
Sichtweite: 5000 m
trockener Dunst

TAF: FVHA 192200Z 2000/2106 08009KT 5000 HZ NSC

Wetterbeobachtungen und Prognosen von mehr als 4000 Flughäfen (METAR und TAF Bericht).

Die verfügbaren Stationen werden durch gelbe und rote Markierungen auf der Karte dargestellt.

Führen Sie die Maus auf sie, um den Namen der Station zu sehen.

Darauf klicken, um die Beobachtung von Wetterbeobachtungen und Prognosen zu sehen.

Um die Karte zu ändern : klicken Sie auf den grünen Tasten mit einem schwarzen Kreuz Zum Vergrößern, auf den grünen Button mit einem Gedankenstrich zu verkleinern, oder auf die grünen Pfeile für benachbarte Karten.


METAR-TAF: